Schleswig Jagel, Germany

6:08 AM CEST on September 03, 2014 (GMT +0200)
ISCHLESW61 | Change Station
CLOSE
Current Station
Personal Weather Station
Location: Treia, SCHLESWIG-HOLSTEIN
Elevation: 15 ft
Nearby Weather Stations

Elev 15 ft 54.51 °N, 9.31 °E | Updated 2 minutes ago

Fog
Fog
49.3 °F
Feels Like 49 °F
N
0.0
Wind Variable Wind from NNW
Gusts 0.0 mph

Today
High -- | Low -- °F
--% Chance of Precip.
Yesterday
High -- | Low -- °F
Precip. -- in
6:32 AM 8:08 PM
First Quarter, 58% visible
Pressure 30.33 in
Visibility 0.2 miles
Clouds
Windchill 49 °F
Dew Point 47 °F
Humidity 92%
Rainfall 0.00 in
Snow Depth Not available.
UV 0.0 out of 12
Pollen Not available.
Air Quality Not available.
Flu Activity Not available.
SPECI ETNH 030345Z 03003KT 0300 FG 10/10 Q1027 RED

More Conditions Fewer Conditions

Pressure 30.33 in
Visibility 0.2 miles
Clouds
Windchill 49 °F
Dew Point 47 °F
Humidity 92%
Rainfall 0.00 in
Snow Depth Not available.
UV 0.0 out of 12
Pollen Not available.
Air Quality Not available.
Flu Activity Not available.
SPECI ETNH 030345Z 03003KT 0300 FG 10/10 Q1027 RED

More Conditions Fewer Conditions

10-Day Weather Forecast

Almanac

Astronomy

Sep. 03, 2014 Rise Set
Actual Time 6:32 AM CEST 8:08 PM CEST
Civil Twilight 5:55 AM CEST 8:46 PM CEST
Nautical Twilight 5:08 AM CEST 9:32 PM CEST
Astronomical Twilight 4:15 AM CEST 10:24 PM CEST
Moon 4:05 PM CEST No Moon Set
Length of Visible Light 14h 51m
Length of Day
13h 36m
Tomorrow will be 4m 18s shorter.
First Quarter, 58% of the Moon is Illuminated
Today
First Quarter
Sep 8
Full
Sep 15
Last Quarter
Sep 24
New
Oct 1
First Quarter

Yesterday's Extremes

Country Highs Country Lows

Community

WunderPhotos

Upload Photos

1,749,866 photos uploaded!

Nearby

Snow Depth

Not available.

Earthquake Activity

City Distance Mag. Time & Date
No recent earthquake activity has been reported nearby.
Minimum magnitude displayed is 2.5.

Coastal Water Temperatures

Place Temperature
No Stations Reporting

Nearby Weather Stations